• Join FlightAware (Why Join?)
  • Login
  • US Flag 
07:29PM EDT


 

Airport Tracker/Info


-or-


 

Live Flight TrackerFlight Track Log ✈ N1767P ✈ 25-Aug-2013 ✈ CYQB - KALB

Flight Track Log - Related Links

Times and Time Zones

All times are in EDT time to prevent confusion due to time zone crossing. See the N1767P flight status page for this flight to view local times or setup timezone preferences in your user account.

Time Position Orientation Groundspeed Altitude Reporting Facility
EDT Latitude Longitude Course Direction KTS MPH feet Rate Location/Type
12:56PM 46.7667 -71.3833 186° South 100 115 400  Level Montreal Center
12:57PM 46.7500 -71.4167 234° Southwest 120 138 1,400 960 Climbing Montreal Center
12:58PM 46.7167 -71.4333 199° South 120 138 2,400 900 Climbing Montreal Center
12:59PM 46.6833 -71.4333 180° South 130 150 3,200 840 Climbing Montreal Center
01:00PM 46.6500 -71.4500 199° South 130 150 4,100 840 Climbing Montreal Center
01:01PM 46.5239 -71.4167 180° South  Level FlightAware Approximate
01:01PM 46.6167 -71.4500 180° South 140 161 4,900  Level Montreal Center
01:02PM 46.4805 -71.4171 186° South  Level FlightAware Approximate
01:02PM 46.5667 -71.4333 167° South 140 161 5,800  Level Montreal Center
01:03PM 46.5333 -71.4333 180° South 150 173 6,500 780 Climbing Montreal Center
01:04PM 46.4833 -71.4333 180° South 150 173 7,400 720 Climbing Montreal Center
01:05PM 46.4500 -71.4333 180° South 150 173 8,000 300 Climbing Montreal Center
01:06PM 46.4000 -71.4500 193° South 160 184 8,000  Level Montreal Center
01:07PM 46.3667 -71.4500 180° South 160 184 8,000  Level Montreal Center
01:08PM 46.3167 -71.4333 167° South 160 184 8,000  Level Montreal Center
01:09PM 46.2667 -71.4333 180° South 160 184 8,000  Level Montreal Center
01:10PM 46.2333 -71.4333 180° South 160 184 8,000  Level Montreal Center
01:11PM 46.1833 -71.4333 180° South 160 184 8,000  Level Montreal Center
01:12PM 46.1333 -71.4333 180° South 160 184 8,000  Level Montreal Center
01:13PM 46.0833 -71.4500 193° South 160 184 8,000  Level Montreal Center
01:14PM 46.0500 -71.4500 180° South 160 184 8,000  Level Montreal Center
01:15PM 46.0000 -71.4500 180° South 160 184 8,000  Level Montreal Center
01:16PM 45.9500 -71.4500 180° South 160 184 8,000  Level Montreal Center
01:17PM 45.9167 -71.4667 199° South 160 184 8,000  Level Montreal Center
01:18PM 45.8667 -71.4667 180° South 160 184 8,000  Level Montreal Center
01:19PM 45.8167 -71.4667 180° South 160 184 8,000  Level Montreal Center
01:20PM 45.7667 -71.4667 180° South 160 184 8,100  Climbing Montreal Center
01:21PM 45.7333 -71.4833 199° South 160 184 8,100  Level Montreal Center
01:22PM 45.7000 -71.5000 199° South 150 173 8,100  Level Montreal Center
01:23PM 45.6500 -71.5333 205° Southwest 160 184 8,100  Level Montreal Center
01:24PM 45.6167 -71.5500 199° South 160 184 8,100  Level Montreal Center
01:25PM 45.5667 -71.5833 205° Southwest 150 173 8,100  Level Montreal Center
01:26PM 45.5333 -71.6167 215° Southwest 150 173 8,100  Level Montreal Center
01:27PM 45.4833 -71.6333 193° South 160 184 8,100  Level Montreal Center
01:28PM 45.4500 -71.6667 215° Southwest 160 184 8,100  Level Montreal Center
01:29PM 45.4167 -71.7000 215° Southwest 160 184 8,100  Level Montreal Center
01:30PM 45.3667 -71.7167 193° South 160 184 8,100  Level Montreal Center
01:31PM 45.3333 -71.7500 215° Southwest 150 173 8,100  Level Montreal Center
01:32PM 45.3000 -71.7833 215° Southwest 150 173 8,100  Level Montreal Center
01:33PM 45.2667 -71.8000 199° South 160 184 8,100  Level Montreal Center
01:34PM 45.2333 -71.8333 215° Southwest 150 173 8,100 -60 Level Montreal Center
01:36PM 45.1661 -71.8925 212° Southwest 170 196 8,000 -60 Descending Boston Center
01:37PM 45.1289 -71.9222 209° Southwest 165 190 8,000  Level Boston Center
01:38PM 45.0894 -71.9461 203° Southwest 165 190 8,000  Level Boston Center
01:39PM 45.0519 -71.9731 207° Southwest 160 184 8,000  Level Boston Center
01:40PM 45.0125 -72.0028 208° Southwest 160 184 8,000  Level Boston Center
01:41PM 44.9731 -72.0294 206° Southwest 160 184 8,000  Level Boston Center
01:42PM 44.9336 -72.0561 206° Southwest 160 184 8,000  Level Boston Center
01:43PM 44.8942 -72.0828 206° Southwest 155 178 8,000  Level Boston Center
01:44PM 44.8547 -72.1092 205° Southwest 155 178 8,000  Level Boston Center
01:45PM 44.8172 -72.1358 207° Southwest 155 178 8,000  Level Boston Center
01:46PM 44.7778 -72.1653 208° Southwest 155 178 8,000  Level Boston Center
01:47PM 44.7381 -72.1889 203° Southwest 155 178 8,000  Level Boston Center
01:48PM 44.6986 -72.2153 205° Southwest 155 178 8,000  Level Boston Center
01:49PM 44.6592 -72.2444 208° Southwest 155 178 8,000  Level Boston Center
01:50PM 44.6194 -72.2708 205° Southwest 155 178 8,000  Level Boston Center
01:51PM 44.5800 -72.2972 205° Southwest 155 178 8,000  Level Boston Center
01:52PM 44.5425 -72.3264 209° Southwest 155 178 8,000  Level Boston Center
01:53PM 44.5031 -72.3497 203° Southwest 155 178 8,000  Level Boston Center
01:54PM 44.4633 -72.3761 205° Southwest 161 185 8,000  Level Boston Center
01:55PM 44.4281 -72.4022 208° Southwest 161 185 8,000  Level Boston Center
01:56PM 44.3842 -72.4314 205° Southwest 161 185 8,000  Level Boston Center
01:57PM 44.3447 -72.4575 205° Southwest 156 180 8,000  Level Boston Center
01:58PM 44.3050 -72.4836 205° Southwest 156 180 8,000  Level Boston Center
01:59PM 44.2675 -72.5097 207° Southwest 156 180 8,000  Level Boston Center
02:00PM 44.2281 -72.5356 205° Southwest 156 180 8,000  Level Boston Center
02:01PM 44.1842 -72.5675 208° Southwest 156 180 8,000  Level Boston Center
02:02PM 44.1467 -72.5933 206° Southwest 156 180 8,000  Level Boston Center
02:03PM 44.1069 -72.6164 203° Southwest 156 180 8,000 -60 Level Boston Center
02:04PM 44.0653 -72.6453 206° Southwest 156 180 7,900 -60 Descending Boston Center
02:05PM 44.0278 -72.6711 206° Southwest 156 180 7,900  Level Boston Center
02:06PM 43.9881 -72.6969 205° Southwest 156 180 7,900  Level Boston Center
02:07PM 43.9483 -72.7256 207° Southwest 156 180 7,900  Level Boston Center
02:08PM 43.9108 -72.7514 206° Southwest 156 180 7,900  Level Boston Center
02:09PM 43.8711 -72.7742 202° Southwest 156 180 7,900  Level Boston Center
02:10PM 43.8336 -72.8028 209° Southwest 156 180 7,900  Level Boston Center
02:11PM 43.7919 -72.8283 204° Southwest 156 180 7,900  Level Boston Center
02:12PM 43.7500 -72.8539 204° Southwest 156 180 7,900  Level Boston Center
02:13PM 43.7144 -72.8794 207° Southwest 156 180 7,900  Level Boston Center
02:14PM 43.6750 -72.9050 205° Southwest 156 180 7,900  Level Boston Center
02:15PM 43.6394 -72.9306 207° Southwest 156 180 7,900  Level Boston Center
02:16PM 43.5997 -72.9561 205° Southwest 156 180 7,900  Level Boston Center
02:17PM 43.5600 -72.9817 205° Southwest 156 180 7,900  Level Boston Center
02:18PM 43.5161 -73.0097 205° Southwest 156 180 7,900  Level Boston Center
02:19PM 43.4825 -73.0408 214° Southwest 150 173 7,900  Level Boston Center
02:20PM 43.4719 -73.0925 254° West 137 158 7,900  Level Boston Center
02:21PM 43.4569 -73.1436 248° West 142 163 7,900  Level Boston Center
02:22PM 43.4419 -73.1978 249° West 146 168 7,900  Level Boston Center
02:23PM 43.4333 -73.2406 255° West 148 170 7,900  Level Boston Center
02:24PM 43.4183 -73.3033 252° West 150 173 7,900  Level Boston Center
02:25PM 43.4056 -73.3375 243° Southwest 141 162 8,000  Climbing Boston Center
02:26PM 43.3658 -73.3625 205° Southwest 156 180 8,000  Level Boston Center
02:27PM 43.3281 -73.3906 208° Southwest 154 177 8,000 -120 Level Boston Center
02:28PM 43.2903 -73.4183 208° Southwest 157 181 7,800 -420 Descending Boston Center
02:29PM 43.2525 -73.4464 208° Southwest 171 197 7,200 -720 Descending Boston Center
02:30PM 43.1958 -73.4853 207° Southwest 172 198 6,300 -720 Descending Boston Center
02:31PM 43.1561 -73.5131 207° Southwest 179 206 5,700 -660 Descending Boston Center
02:32PM 43.1119 -73.5464 209° Southwest 174 200 5,000 -780 Descending Boston Center
02:33PM 43.0683 -73.5456 179° South 184 212 4,300 -600 Descending Boston Center
02:34PM 43.0244 -73.5478 182° South 170 196 4,000 -180 Descending Boston Center
02:35PM 42.9828 -73.5525 185° South 151 174 4,000  Level Boston Center
02:36PM 42.9411 -73.5519 179° South 146 168 4,000 -240 Level Boston Center
02:37PM 42.8931 -73.5622 189° South 160 184 3,600 -480 Descending Boston Center
02:38PM 42.8492 -73.5786 195° South 161 185 3,100 -300 Descending Boston Center
02:39PM 42.8072 -73.5975 198° South 159 183 3,000 -60 Descending Boston Center
02:40PM 42.7653 -73.6222 203° Southwest 139 160 3,000  Level Boston Center
02:41PM 42.7336 -73.6472 210° Southwest 145 167 3,000 -240 Level Boston Center
02:42PM 42.7103 -73.6947 236° Southwest 156 180 2,600 -600 Descending Boston Center
02:43PM 42.7056 -73.7511 264° West 133 153 1,900 -720 Descending Boston Center
02:44PM 42.7092 -73.7906 277° West 107 123 1,200 -720 Descending Boston Center
02:46PM 42.7491 -73.8020 344° North  Level Estimated